Time;durP1;ratioP1;P1;durP2;ratioP2;P2;SDS_P1;SDS_P2;PMS_P1;PMS_P2;Temp;Humidity;BMP_temperature;BMP_pressure;BME280_temperature;BME280_humidity;BME280_pressure;Samples;Min_cycle;Max_cycle;Signal;HPM_P1;HPM_P2
2023/07/26 00:00:23;;;;;;;;;;;;;;;20.48;49.06;101113.72;4115721;28;19957;-58
2023/07/26 00:02:24;;;;;;;;;;;;;;;20.47;49.22;101120.03;4115523;28;19933;-58
2023/07/26 00:04:26;;;;;;;;;;;;;;;20.47;49.21;101111.19;4115217;28;19922;-57
2023/07/26 00:06:30;;;;;;;;;;;;;;;20.46;48.94;101112.97;4115308;28;19922;-58
2023/07/26 00:08:32;;;;;;;;;;;;;;;20.45;48.98;101113.97;4115424;28;19968;-58
2023/07/26 00:10:34;;;;;;;;;;;;;;;20.45;49.27;101111.31;4098237;28;19936;-58
2023/07/26 00:12:35;;;;;;;;;;;;;;;20.44;49.29;101117.59;4115265;28;20309;-58
2023/07/26 00:14:37;;;;;;;;;;;;;;;20.42;49.08;101117.69;4115519;28;19953;-59
2023/07/26 00:16:39;;;;;;;;;;;;;;;20.43;49.41;101115.88;4113624;28;20387;-58
2023/07/26 00:18:40;;;;;;;;;;;;;;;20.42;49.15;101116.84;4115311;28;19922;-58
2023/07/26 00:20:42;;;;;;;;;;;;;;;20.42;49.29;101114.19;4115396;28;19929;-58
2023/07/26 00:22:43;;;;;;;;;;;;;;;20.41;49.38;101123.16;4115319;28;19922;-59
2023/07/26 00:24:45;;;;;;;;;;;;;;;20.41;49.43;101120.47;4115334;28;19953;-59
2023/07/26 00:26:47;;;;;;;;;;;;;;;20.40;49.05;101126.78;4114734;28;19926;-58
2023/07/26 00:28:48;;;;;;;;;;;;;;;20.40;49.16;101124.09;4115162;28;19977;-58
2023/07/26 00:30:50;;;;;;;;;;;;;;;20.39;49.28;101122.38;4115206;28;19922;-58
2023/07/26 00:32:52;;;;;;;;;;;;;;;20.38;49.27;101126.06;4115386;28;19922;-58
2023/07/26 00:34:53;;;;;;;;;;;;;;;20.38;49.13;101121.56;4115331;28;19968;-62
2023/07/26 00:36:55;;;;;;;;;;;;;;;20.38;48.88;101124.22;4115961;28;19972;-58
2023/07/26 00:38:56;;;;;;;;;;;;;;;20.37;49.06;101119.84;4118368;28;19944;-58
2023/07/26 00:40:58;;;;;;;;;;;;;;;20.36;49.03;101126.13;4117973;28;19945;-58
2023/07/26 00:42:59;;;;;;;;;;;;;;;20.36;49.21;101120.78;4118342;28;19926;-58
2023/07/26 00:45:02;;;;;;;;;;;;;;;20.35;49.19;101119.13;4118220;28;20008;-58
2023/07/26 00:47:04;;;;;;;;;;;;;;;20.35;49.20;101115.56;4117660;28;20420;-58
2023/07/26 00:49:05;;;;;;;;;;;;;;;20.34;49.16;101120.06;4118251;28;19926;-58
2023/07/26 00:51:07;;;;;;;;;;;;;;;20.34;49.07;101122.75;4118241;28;19977;-58
2023/07/26 00:53:09;;;;;;;;;;;;;;;20.33;48.92;101123.69;4117885;28;19928;-58
2023/07/26 00:55:11;;;;;;;;;;;;;;;20.32;49.03;101122.00;4118163;28;20001;-58
2023/07/26 00:57:13;;;;;;;;;;;;;;;20.33;49.02;101120.16;4117477;28;19953;-58
2023/07/26 00:59:15;;;;;;;;;;;;;;;20.33;49.21;101120.16;4118064;28;19966;-58
2023/07/26 01:01:17;;;;;;;;;;;;;;;20.31;48.97;101120.28;4117928;28;19928;-59
2023/07/26 01:03:19;;;;;;;;;;;;;;;20.30;48.96;101115.88;4117968;28;19926;-58
2023/07/26 01:05:22;;;;;;;;;;;;;;;20.31;48.85;101114.09;4118096;28;19929;-58
2023/07/26 01:07:27;;;;;;;;;;;;;;;20.30;48.87;101120.38;4117375;28;20303;-58
2023/07/26 01:09:41;;;;;;;;;;;;;;;20.30;48.98;101123.06;4117924;28;19985;-57
2023/07/26 01:11:58;;;;;;;;;;;;;;;20.29;49.17;101121.34;4117658;28;19928;-57
2023/07/26 01:14:15;;;;;;;;;;;;;;;20.29;48.87;101116.00;4117921;28;19922;-58
2023/07/26 01:16:17;;;;;;;;;;;;;;;20.28;48.87;101120.50;4117958;28;20340;-57
2023/07/26 01:18:19;;;;;;;;;;;;;;;20.27;48.86;101119.63;4117211;28;20021;-58
2023/07/26 01:20:20;;;;;;;;;;;;;;;20.27;48.82;101116.13;4117845;28;19944;-58
2023/07/26 01:22:22;;;;;;;;;;;;;;;20.26;48.96;101114.41;4117916;28;19944;-58
2023/07/26 01:24:24;;;;;;;;;;;;;;;20.25;49.14;101115.38;4117398;28;20260;-58
2023/07/26 01:26:25;;;;;;;;;;;;;;;20.25;48.93;101115.38;4117505;28;20005;-58
2023/07/26 01:28:27;;;;;;;;;;;;;;;20.24;48.76;101111.84;4116777;28;19977;-58
2023/07/26 01:30:30;;;;;;;;;;;;;;;20.24;48.90;101110.97;4117594;28;19969;-58
2023/07/26 01:32:31;;;;;;;;;;;;;;;20.23;48.96;101112.81;4117656;28;20385;-57
2023/07/26 01:34:33;;;;;;;;;;;;;;;20.23;49.14;101117.28;4117440;28;19957;-58
2023/07/26 01:36:35;;;;;;;;;;;;;;;20.22;49.02;101113.78;4117446;28;19926;-57
2023/07/26 01:38:37;;;;;;;;;;;;;;;20.22;48.88;101111.09;4116765;28;19965;-58
2023/07/26 01:40:40;;;;;;;;;;;;;;;20.22;49.28;101115.56;4117079;28;20369;-58
2023/07/26 01:42:41;;;;;;;;;;;;;;;20.21;49.19;101108.53;4117500;28;19922;-58
2023/07/26 01:44:43;;;;;;;;;;;;;;;20.21;49.13;101111.22;4117516;28;19929;-58
2023/07/26 01:46:44;;;;;;;;;;;;;;;20.19;49.20;101097.94;4117387;28;19929;-59
2023/07/26 01:48:46;;;;;;;;;;;;;;;20.20;48.81;101106.81;4116610;28;19922;-57
2023/07/26 01:50:47;;;;;;;;;;;;;;;20.20;48.80;101107.66;4117381;28;19921;-58
2023/07/26 01:52:49;;;;;;;;;;;;;;;20.19;49.14;101107.78;4117558;28;20451;-57
2023/07/26 01:54:51;;;;;;;;;;;;;;;20.18;48.91;101100.72;4116873;28;19922;-57
2023/07/26 01:56:52;;;;;;;;;;;;;;;20.19;49.06;101107.78;4116960;28;19992;-58
2023/07/26 01:58:54;;;;;;;;;;;;;;;20.16;49.24;101100.84;4116760;28;19950;-57
2023/07/26 02:00:55;;;;;;;;;;;;;;;20.17;48.89;101107.03;4117250;28;19961;-57
2023/07/26 02:02:57;;;;;;;;;;;;;;;20.16;49.11;101111.53;4117066;28;19922;-57
2023/07/26 02:04:58;;;;;;;;;;;;;;;20.15;49.12;101107.16;4116704;28;19934;-56
2023/07/26 02:07:00;;;;;;;;;;;;;;;20.16;48.93;101102.66;4116456;28;19964;-58
2023/07/26 02:09:01;;;;;;;;;;;;;;;20.15;49.04;101112.50;4116715;28;19922;-57
2023/07/26 02:11:03;;;;;;;;;;;;;;;20.14;48.94;101105.44;4117079;28;19978;-58
2023/07/26 02:13:05;;;;;;;;;;;;;;;20.14;48.93;101102.75;4117047;28;19922;-57
2023/07/26 02:15:06;;;;;;;;;;;;;;;20.14;49.10;101099.25;4117034;28;19932;-58
2023/07/26 02:17:08;;;;;;;;;;;;;;;20.13;49.21;101100.22;4116421;28;19968;-58
2023/07/26 02:19:09;;;;;;;;;;;;;;;20.13;49.02;101103.72;4116804;28;19921;-57
2023/07/26 02:21:11;;;;;;;;;;;;;;;20.11;48.79;101098.50;4116983;28;19973;-56
2023/07/26 02:23:12;;;;;;;;;;;;;;;20.11;48.82;101098.50;4116369;28;20384;-55
2023/07/26 02:25:14;;;;;;;;;;;;;;;20.11;49.28;101100.31;4116822;28;19965;-57
2023/07/26 02:27:16;;;;;;;;;;;;;;;20.10;48.83;101107.47;4116140;28;19933;-57
2023/07/26 02:29:18;;;;;;;;;;;;;;;20.10;49.10;101112.81;4116730;28;19947;-58
2023/07/26 02:31:19;;;;;;;;;;;;;;;20.10;48.77;101107.47;4116801;28;19929;-58
2023/07/26 02:33:21;;;;;;;;;;;;;;;20.08;48.99;101106.69;4115474;28;20020;-58
2023/07/26 02:35:22;;;;;;;;;;;;;;;20.09;48.93;101113.75;4116587;28;19922;-58
2023/07/26 02:37:25;;;;;;;;;;;;;;;20.08;48.91;101108.53;4115796;28;19961;-58
2023/07/26 02:39:27;;;;;;;;;;;;;;;20.07;49.13;101102.34;4116616;28;19921;-58
2023/07/26 02:41:28;;;;;;;;;;;;;;;20.07;48.99;101109.50;4116649;28;19922;-60
2023/07/26 02:43:30;;;;;;;;;;;;;;;20.07;49.17;101110.38;4116545;28;19922;-58
2023/07/26 02:45:42;;;;;;;;;;;;;;;20.06;49.05;101099.75;4116521;28;19949;-58
2023/07/26 02:47:43;;;;;;;;;;;;;;;20.05;49.25;101108.72;4115801;28;19926;-58
2023/07/26 02:49:45;;;;;;;;;;;;;;;20.05;48.83;101098.94;4116545;28;20370;-58
2023/07/26 02:51:46;;;;;;;;;;;;;;;20.04;49.09;101107.91;4116177;28;19965;-58
2023/07/26 02:53:52;;;;;;;;;;;;;;;20.05;49.21;101111.41;4116278;28;19922;-58
2023/07/26 02:55:54;;;;;;;;;;;;;;;20.04;49.14;101099.88;4116474;28;19957;-57
2023/07/26 02:57:55;;;;;;;;;;;;;;;20.03;48.89;101100.84;4115702;28;20479;-57
2023/07/26 02:59:57;;;;;;;;;;;;;;;20.02;49.04;101099.13;4115637;28;20414;-58
2023/07/26 03:01:58;;;;;;;;;;;;;;;20.03;48.78;101108.00;4116345;28;20305;-57
2023/07/26 03:04:00;;;;;;;;;;;;;;;20.02;48.78;101103.63;4115951;28;20385;-57
2023/07/26 03:06:02;;;;;;;;;;;;;;;20.02;48.94;101103.63;4115880;28;19922;-56
2023/07/26 03:08:04;;;;;;;;;;;;;;;20.01;49.25;101101.91;4114178;28;20427;-57
2023/07/26 03:10:05;;;;;;;;;;;;;;;20.00;48.91;101106.41;4116179;28;20463;-58
2023/07/26 03:12:07;;;;;;;;;;;;;;;20.00;48.97;101103.75;4115927;28;19922;-56
2023/07/26 03:14:08;;;;;;;;;;;;;;;20.00;49.18;101100.19;4116256;28;20012;-57
2023/07/26 03:16:10;;;;;;;;;;;;;;;20.00;48.99;101102.88;4116106;28;19965;-57
2023/07/26 03:18:13;;;;;;;;;;;;;;;19.99;49.29;101102.03;4115410;28;20380;-58
2023/07/26 03:20:14;;;;;;;;;;;;;;;19.98;48.98;101105.66;4115659;28;19922;-58
2023/07/26 03:22:16;;;;;;;;;;;;;;;19.99;49.04;101109.16;4115927;28;19933;-58
2023/07/26 03:24:17;;;;;;;;;;;;;;;19.98;49.01;101112.78;4115784;28;20021;-57
2023/07/26 03:26:19;;;;;;;;;;;;;;;19.97;49.17;101111.94;4115776;28;19972;-57
2023/07/26 03:28:21;;;;;;;;;;;;;;;19.97;48.93;101113.78;4113870;28;19922;-58
2023/07/26 03:30:22;;;;;;;;;;;;;;;19.97;49.03;101108.44;4115899;28;19969;-58
2023/07/26 03:32:24;;;;;;;;;;;;;;;19.95;48.81;101119.19;4115775;28;20415;-58
2023/07/26 03:34:25;;;;;;;;;;;;;;;19.95;48.93;101119.19;4115877;28;20404;-58
2023/07/26 03:36:27;;;;;;;;;;;;;;;19.94;48.85;101123.69;4115644;28;19922;-58
2023/07/26 03:38:29;;;;;;;;;;;;;;;19.94;49.04;101129.03;4115255;28;19957;-58
2023/07/26 03:40:30;;;;;;;;;;;;;;;19.94;49.04;101121.03;4115745;28;20004;-58
2023/07/26 03:42:32;;;;;;;;;;;;;;;19.94;48.95;101130.88;4115916;28;19921;-58
2023/07/26 03:44:33;;;;;;;;;;;;;;;19.94;48.79;101136.19;4115644;28;19972;-58
2023/07/26 03:46:35;;;;;;;;;;;;;;;19.94;48.94;101130.88;4114443;28;19926;-58
2023/07/26 03:48:36;;;;;;;;;;;;;;;19.92;49.13;101130.94;4114889;28;19925;-58
2023/07/26 03:50:38;;;;;;;;;;;;;;;19.91;48.82;101123.88;4115350;28;19922;-57
2023/07/26 03:52:39;;;;;;;;;;;;;;;19.90;49.09;101127.53;4115719;28;19922;-57
2023/07/26 03:54:41;;;;;;;;;;;;;;;19.91;49.02;101128.38;4115603;28;20364;-57
2023/07/26 03:56:42;;;;;;;;;;;;;;;19.90;48.88;101126.69;4115753;28;19922;-56
2023/07/26 03:58:44;;;;;;;;;;;;;;;19.90;49.05;101124.88;4115033;28;19922;-58
2023/07/26 04:00:45;;;;;;;;;;;;;;;19.89;48.99;101120.50;4115665;28;20013;-58
2023/07/26 04:02:47;;;;;;;;;;;;;;;19.89;49.04;101123.16;4098454;29;20300;-58
2023/07/26 04:04:49;;;;;;;;;;;;;;;19.89;49.09;101119.63;4115006;28;19926;-58
2023/07/26 04:06:51;;;;;;;;;;;;;;;19.88;49.16;101112.56;4115357;28;19922;-58
2023/07/26 04:08:52;;;;;;;;;;;;;;;19.88;49.38;101118.78;4114920;28;19925;-58
2023/07/26 04:10:54;;;;;;;;;;;;;;;19.88;49.03;101118.78;4115569;28;19926;-57
2023/07/26 04:12:56;;;;;;;;;;;;;;;19.88;49.17;101117.91;4118105;28;19928;-58
2023/07/26 04:14:57;;;;;;;;;;;;;;;19.87;49.21;101118.91;4118733;28;19922;-58
2023/07/26 04:16:59;;;;;;;;;;;;;;;19.87;48.90;101118.91;4118622;28;20371;-58
2023/07/26 04:19:00;;;;;;;;;;;;;;;19.87;49.14;101117.06;4117824;28;19922;-58
2023/07/26 04:21:02;;;;;;;;;;;;;;;19.86;48.94;101114.50;4118725;28;19922;-57
2023/07/26 04:23:03;;;;;;;;;;;;;;;19.85;49.05;101121.66;4118569;28;19922;-56
2023/07/26 04:25:05;;;;;;;;;;;;;;;19.84;48.93;101113.75;4118542;28;19922;-58
2023/07/26 04:27:07;;;;;;;;;;;;;;;19.85;49.14;101121.66;4118702;28;19926;-58
2023/07/26 04:29:08;;;;;;;;;;;;;;;19.85;49.17;101115.47;4116909;28;20397;-57
2023/07/26 04:31:10;;;;;;;;;;;;;;;19.84;49.12;101113.75;4118456;28;19928;-57
2023/07/26 04:33:11;;;;;;;;;;;;;;;19.85;49.04;101112.78;4118059;28;19969;-58
2023/07/26 04:35:13;;;;;;;;;;;;;;;19.85;49.21;101118.13;4118511;28;19922;-58
2023/07/26 04:37:14;;;;;;;;;;;;;;;19.84;49.32;101113.75;4118227;28;19922;-58
2023/07/26 04:39:16;;;;;;;;;;;;;;;19.84;49.10;101116.41;4117700;28;19929;-58
2023/07/26 04:41:17;;;;;;;;;;;;;;;19.83;48.94;101110.22;4118384;28;19926;-58
2023/07/26 04:43:19;;;;;;;;;;;;;;;19.82;49.08;101119.16;4118118;28;19984;-58
2023/07/26 04:45:21;;;;;;;;;;;;;;;19.83;49.08;101112.00;4118349;28;20274;-58
2023/07/26 04:47:24;;;;;;;;;;;;;;;19.82;49.01;101115.63;4117788;28;19969;-58
2023/07/26 04:49:26;;;;;;;;;;;;;;;19.82;49.21;101119.16;4117927;28;20456;-58
2023/07/26 04:51:27;;;;;;;;;;;;;;;19.80;49.54;101116.59;4118438;28;19926;-58
2023/07/26 04:53:29;;;;;;;;;;;;;;;19.80;49.35;101121.09;4118336;28;19922;-58
2023/07/26 04:55:31;;;;;;;;;;;;;;;19.80;48.98;101118.41;4118275;28;20024;-58
2023/07/26 04:57:32;;;;;;;;;;;;;;;19.81;49.27;101122.78;4117714;28;19922;-57
2023/07/26 04:59:34;;;;;;;;;;;;;;;19.80;49.53;101124.59;4118077;28;20015;-58
2023/07/26 05:01:35;;;;;;;;;;;;;;;19.80;49.18;101123.75;4118222;28;20417;-58
2023/07/26 05:03:38;;;;;;;;;;;;;;;19.80;49.26;101121.91;4117592;28;19925;-58
2023/07/26 05:05:39;;;;;;;;;;;;;;;19.79;49.04;101117.56;4118108;28;19949;-58
2023/07/26 05:07:41;;;;;;;;;;;;;;;19.78;49.13;101123.00;4117421;28;19969;-58
2023/07/26 05:09:43;;;;;;;;;;;;;;;19.79;49.30;101130.03;4117961;28;20030;-59
2023/07/26 05:11:44;;;;;;;;;;;;;;;19.79;49.35;101130.91;4117942;28;19922;-59
2023/07/26 05:13:46;;;;;;;;;;;;;;;19.78;49.17;101131.00;4118037;28;20387;-58
2023/07/26 05:15:48;;;;;;;;;;;;;;;19.78;49.38;101125.66;4118083;28;20037;-59
2023/07/26 05:17:50;;;;;;;;;;;;;;;19.77;49.17;101123.97;4116821;28;19928;-58
2023/07/26 05:19:51;;;;;;;;;;;;;;;19.79;49.09;101135.38;4117777;28;19922;-58
2023/07/26 05:21:53;;;;;;;;;;;;;;;19.78;49.29;101133.66;4117560;28;19922;-58
2023/07/26 05:23:55;;;;;;;;;;;;;;;19.78;49.10;101139.00;4117340;28;20472;-58
2023/07/26 05:25:56;;;;;;;;;;;;;;;19.77;49.31;101138.16;4116487;28;19944;-59
2023/07/26 05:27:58;;;;;;;;;;;;;;;19.77;49.41;101137.31;4117162;28;19926;-59
2023/07/26 05:30:00;;;;;;;;;;;;;;;19.77;49.41;101140.84;4117386;28;19922;-59
2023/07/26 05:32:01;;;;;;;;;;;;;;;19.77;49.05;101138.16;4117156;28;19922;-58
2023/07/26 05:34:06;;;;;;;;;;;;;;;19.77;49.31;101142.66;4117726;28;20432;-59
2023/07/26 05:36:08;;;;;;;;;;;;;;;19.77;49.30;101140.00;4117742;28;20472;-60
2023/07/26 05:38:10;;;;;;;;;;;;;;;19.75;49.51;101145.41;4116854;28;19922;-59
2023/07/26 05:40:12;;;;;;;;;;;;;;;19.76;49.07;101143.63;4117502;28;20523;-59
2023/07/26 05:42:13;;;;;;;;;;;;;;;19.76;49.31;101151.63;4117533;28;19922;-59
2023/07/26 05:44:15;;;;;;;;;;;;;;;19.75;49.21;101148.06;4117192;28;19922;-56
2023/07/26 05:46:16;;;;;;;;;;;;;;;19.75;49.46;101148.06;4117188;28;20361;-59
2023/07/26 05:48:18;;;;;;;;;;;;;;;19.75;49.63;101153.41;4116839;28;19926;-59
2023/07/26 05:50:19;;;;;;;;;;;;;;;19.75;49.20;101153.41;4116714;28;19930;-59
2023/07/26 05:52:25;;;;;;;;;;;;;;;19.76;49.44;101154.28;4117399;28;19922;-59
2023/07/26 05:54:27;;;;;;;;;;;;;;;19.75;49.20;101164.09;4117262;28;20021;-58
2023/07/26 05:56:28;;;;;;;;;;;;;;;19.74;49.46;101159.72;4117448;28;19926;-59
2023/07/26 05:58:30;;;;;;;;;;;;;;;19.75;49.53;101168.59;4116850;28;19922;-59
2023/07/26 06:00:31;;;;;;;;;;;;;;;19.75;49.47;101176.59;4116914;28;19961;-59
2023/07/26 06:02:33;;;;;;;;;;;;;;;19.75;49.32;101173.91;4117177;28;19968;-59
2023/07/26 06:04:35;;;;;;;;;;;;;;;19.75;49.36;101174.75;4116871;28;20048;-59
2023/07/26 06:06:36;;;;;;;;;;;;;;;19.73;49.26;101171.38;4117061;28;19972;-59
2023/07/26 06:08:38;;;;;;;;;;;;;;;19.74;49.60;101177.53;4116440;28;19926;-58
2023/07/26 06:10:40;;;;;;;;;;;;;;;19.74;49.71;101180.22;4116992;28;20016;-58
2023/07/26 06:12:41;;;;;;;;;;;;;;;19.74;49.26;101182.88;4117040;28;20031;-58
2023/07/26 06:14:43;;;;;;;;;;;;;;;19.74;49.31;101185.56;4116715;28;20425;-59
2023/07/26 06:16:44;;;;;;;;;;;;;;;19.74;49.74;101183.72;4117066;28;19928;-59
2023/07/26 06:18:46;;;;;;;;;;;;;;;19.74;49.54;101190.88;4116374;28;19922;-59
2023/07/26 06:20:47;;;;;;;;;;;;;;;19.74;49.53;101196.22;4116838;28;20000;-58
2023/07/26 06:22:49;;;;;;;;;;;;;;;19.74;49.74;101194.41;4116780;28;19922;-59
2023/07/26 06:24:50;;;;;;;;;;;;;;;19.75;49.70;101200.59;4116819;28;19922;-59
2023/07/26 06:26:53;;;;;;;;;;;;;;;19.74;49.75;101196.22;4116627;28;19929;-59
2023/07/26 06:28:54;;;;;;;;;;;;;;;19.74;49.59;101193.56;4115757;28;20021;-59
2023/07/26 06:30:56;;;;;;;;;;;;;;;19.74;49.85;101205.06;4116784;28;19922;-59
2023/07/26 06:32:58;;;;;;;;;;;;;;;19.74;49.51;101205.06;4116741;28;19926;-58
2023/07/26 06:34:59;;;;;;;;;;;;;;;19.74;49.58;101209.56;4115983;28;19926;-58
2023/07/26 06:37:01;;;;;;;;;;;;;;;19.73;49.71;101206.06;4116641;28;19922;-59
2023/07/26 06:39:03;;;;;;;;;;;;;;;19.75;49.70;101208.63;4115962;28;20018;-58
2023/07/26 06:41:05;;;;;;;;;;;;;;;19.74;49.85;101206.91;4116520;28;19921;-58
2023/07/26 06:43:07;;;;;;;;;;;;;;;19.74;49.86;101212.25;4116522;28;19922;-59
2023/07/26 06:45:09;;;;;;;;;;;;;;;19.74;49.80;101217.56;4116094;28;20016;-59
2023/07/26 06:47:11;;;;;;;;;;;;;;;19.74;49.48;101212.25;4116400;28;19921;-58
2023/07/26 06:49:12;;;;;;;;;;;;;;;19.74;49.86;101206.91;4114598;28;19922;-58
2023/07/26 06:51:14;;;;;;;;;;;;;;;19.74;49.84;101213.06;4116461;28;20325;-58
2023/07/26 06:53:15;;;;;;;;;;;;;;;19.74;49.50;101214.91;4116245;28;20009;-58
2023/07/26 06:55:17;;;;;;;;;;;;;;;19.74;49.67;101214.91;4116304;28;20369;-58
2023/07/26 06:57:18;;;;;;;;;;;;;;;19.74;49.83;101218.41;4116459;28;20407;-58
2023/07/26 06:59:20;;;;;;;;;;;;;;;19.73;49.72;101206.06;4115179;28;19953;-58
2023/07/26 07:01:21;;;;;;;;;;;;;;;19.75;49.69;101211.28;4116102;28;19928;-58
2023/07/26 07:03:23;;;;;;;;;;;;;;;19.75;49.69;101200.59;4116022;28;19922;-57
2023/07/26 07:05:25;;;;;;;;;;;;;;;19.75;49.78;101203.28;4116228;28;19922;-57
2023/07/26 07:07:27;;;;;;;;;;;;;;;19.75;49.72;101205.94;4116080;28;20379;-58
2023/07/26 07:09:28;;;;;;;;;;;;;;;19.76;49.50;101205.00;4115485;28;19949;-57
2023/07/26 07:11:30;;;;;;;;;;;;;;;19.75;49.66;101201.44;4116063;28;20331;-58
2023/07/26 07:13:38;;;;;;;;;;;;;;;19.77;49.68;101201.38;4115853;28;19929;-58
2023/07/26 07:15:39;;;;;;;;;;;;;;;19.77;49.91;101204.88;4116122;28;20365;-55
2023/07/26 07:17:41;;;;;;;;;;;;;;;19.79;49.99;101202.97;4115871;28;19926;-57
2023/07/26 07:19:44;;;;;;;;;;;;;;;19.81;50.67;101210.88;4115305;28;19969;-57
2023/07/26 07:21:46;;;;;;;;;;;;;;;19.78;50.59;101203.06;4116006;28;20017;-57
2023/07/26 07:23:48;;;;;;;;;;;;;;;19.78;50.62;101209.28;4116098;28;20305;-58
2023/07/26 07:25:49;;;;;;;;;;;;;;;19.80;51.11;101214.50;4115812;28;19933;-57
2023/07/26 07:27:51;;;;;;;;;;;;;;;19.81;50.86;101216.22;4115496;28;19922;-57
2023/07/26 07:29:52;;;;;;;;;;;;;;;19.84;51.00;101212.50;4115112;28;19922;-58
2023/07/26 07:31:54;;;;;;;;;;;;;;;19.84;50.95;101216.03;4114860;28;19985;-57
2023/07/26 07:34:03;;;;;;;;;;;;;;;19.86;50.88;101214.13;4115897;28;19992;-57
2023/07/26 07:36:04;;;;;;;;;;;;;;;19.88;50.90;101216.66;4115954;28;19922;-57
2023/07/26 07:38:06;;;;;;;;;;;;;;;19.89;50.60;101208.59;4115292;28;19922;-58
2023/07/26 07:40:08;;;;;;;;;;;;;;;19.90;50.85;101204.09;4115488;28;20004;-57
2023/07/26 07:42:09;;;;;;;;;;;;;;;19.91;50.83;101203.13;4115417;28;19926;-59
2023/07/26 07:44:11;;;;;;;;;;;;;;;19.93;50.69;101201.22;4115720;28;19929;-58
2023/07/26 07:46:12;;;;;;;;;;;;;;;19.91;50.68;101195.13;4115667;28;20377;-58
2023/07/26 07:48:14;;;;;;;;;;;;;;;19.91;51.07;101203.13;4115395;28;19949;-58
2023/07/26 07:50:16;;;;;;;;;;;;;;;19.91;50.99;101195.97;4115626;28;20303;-57
2023/07/26 07:52:17;;;;;;;;;;;;;;;19.94;50.85;101202.94;4115799;28;20055;-58
2023/07/26 07:54:19;;;;;;;;;;;;;;;19.95;50.71;101199.28;4115836;28;20364;-58
2023/07/26 07:56:21;;;;;;;;;;;;;;;19.96;50.92;101193.00;4115478;28;20417;-57
2023/07/26 07:58:22;;;;;;;;;;;;;;;19.97;50.96;101194.72;4115266;28;19929;-58
2023/07/26 08:00:24;;;;;;;;;;;;;;;19.95;50.88;101189.47;4115387;28;19961;-57
2023/07/26 08:02:25;;;;;;;;;;;;;;;19.99;50.88;101191.94;4115405;28;19922;-58
2023/07/26 08:04:27;;;;;;;;;;;;;;;20.00;50.82;101196.31;4115416;28;20001;-57
2023/07/26 08:06:29;;;;;;;;;;;;;;;20.01;50.72;101198.03;4115646;28;19922;-56
2023/07/26 08:08:31;;;;;;;;;;;;;;;20.01;50.50;101198.03;4115072;28;19926;-56
2023/07/26 08:10:32;;;;;;;;;;;;;;;20.02;50.57;101197.91;4115244;28;19922;-59
2023/07/26 08:12:37;;;;;;;;;;;;;;;20.04;50.82;101200.50;4115374;28;19922;-54
2023/07/26 08:14:39;;;;;;;;;;;;;;;20.04;50.61;101197.84;4114364;28;19978;-56
2023/07/26 08:16:40;;;;;;;;;;;;;;;20.04;51.02;101204.00;4115412;28;19952;-58
2023/07/26 08:18:42;;;;;;;;;;;;;;;20.05;50.63;101204.84;4114968;28;19934;-56
2023/07/26 08:20:44;;;;;;;;;;;;;;;20.06;50.75;101204.78;4115395;28;19926;-56
2023/07/26 08:22:45;;;;;;;;;;;;;;;20.07;50.62;101202.94;4115456;28;20013;-55
2023/07/26 08:24:50;;;;;;;;;;;;;;;20.06;50.50;101207.44;4115198;28;20294;-57
2023/07/26 08:26:52;;;;;;;;;;;;;;;20.07;50.56;101210.97;4115498;28;19977;-57
2023/07/26 08:28:54;;;;;;;;;;;;;;;20.06;50.66;101211.91;4114798;28;19977;-57
2023/07/26 08:30:56;;;;;;;;;;;;;;;20.09;50.68;101203.72;4115449;28;19977;-57
2023/07/26 08:32:58;;;;;;;;;;;;;;;20.10;50.46;101205.41;4115398;28;19929;-56
2023/07/26 08:35:00;;;;;;;;;;;;;;;20.11;50.23;101207.13;4115402;28;19936;-58
2023/07/26 08:37:01;;;;;;;;;;;;;;;20.14;50.10;101208.75;4115275;28;19929;-58
2023/07/26 08:39:03;;;;;;;;;;;;;;;20.15;50.02;101205.13;4114442;28;19969;-54
2023/07/26 08:41:06;;;;;;;;;;;;;;;20.14;50.25;101206.06;4115843;28;19921;-57
2023/07/26 08:43:08;;;;;;;;;;;;;;;20.14;50.23;101209.59;4119746;28;19922;-53
2023/07/26 08:45:10;;;;;;;;;;;;;;;20.18;50.32;101221.75;4115303;28;20032;-60
2023/07/26 08:47:11;;;;;;;;;;;;;;;20.29;51.53;101212.16;4117744;28;20196;-51
2023/07/26 08:49:13;;;;;;;;;;;;;;;20.35;50.39;101212.59;4108989;28;19922;-53
2023/07/26 08:51:15;;;;;;;;;;;;;;;20.33;49.61;101206.50;4115553;28;20296;-56
2023/07/26 08:53:18;;;;;;;;;;;;;;;20.30;50.09;101209.38;4105805;28;20005;-54
2023/07/26 08:55:20;;;;;;;;;;;;;;;20.33;49.74;101202.97;4114609;28;20017;-55
2023/07/26 08:57:24;;;;;;;;;;;;;;;20.35;49.76;101201.94;4115301;28;20350;-56
2023/07/26 08:59:25;;;;;;;;;;;;;;;20.36;50.16;101205.44;4116780;28;19925;-50
2023/07/26 09:01:27;;;;;;;;;;;;;;;20.36;50.03;101203.59;4117813;28;20405;-54
2023/07/26 09:03:29;;;;;;;;;;;;;;;20.49;51.68;101195.59;4121378;28;19965;-55
2023/07/26 09:05:30;;;;;;;;;;;;;;;20.60;51.12;101197.53;4122652;28;19926;-52
2023/07/26 09:07:32;;;;;;;;;;;;;;;20.66;50.79;101193.56;4125601;28;19926;-52
2023/07/26 09:09:34;;;;;;;;;;;;;;;20.74;50.14;101193.91;4119751;28;19922;-55
2023/07/26 09:11:47;;;;;;;;;;;;;;;20.81;49.89;101187.16;4113649;28;19926;-51
2023/07/26 09:14:01;;;;;;;;;;;;;;;20.89;49.81;101189.28;4116529;28;20517;-54
2023/07/26 09:16:03;;;;;;;;;;;;;;;20.83;49.14;101190.56;4117792;28;20296;-53
2023/07/26 09:18:04;;;;;;;;;;;;;;;20.85;48.87;101187.78;4117688;28;19973;-53
2023/07/26 09:20:19;;;;;;;;;;;;;;;20.89;48.77;101190.13;4116390;28;19922;-56
2023/07/26 09:22:21;;;;;;;;;;;;;;;20.95;49.18;101188.84;4102363;28;20435;-54
2023/07/26 09:24:28;;;;;;;;;;;;;;;21.06;48.98;101188.06;4124238;28;20451;-50
2023/07/26 09:26:32;;;;;;;;;;;;;;;21.16;48.30;101183.75;4123669;28;20361;-58
2023/07/26 09:28:34;;;;;;;;;;;;;;;21.14;47.73;101184.81;4111220;28;19961;-54
2023/07/26 09:30:45;;;;;;;;;;;;;;;21.17;47.65;101190.81;4117987;28;19926;-56
2023/07/26 09:32:48;;;;;;;;;;;;;;;21.21;47.35;101188.75;4129791;28;19929;-53
2023/07/26 09:34:49;;;;;;;;;;;;;;;21.22;47.37;101195.81;4125172;28;19922;-56
2023/07/26 09:36:52;;;;;;;;;;;;;;;21.23;47.48;101186.84;4111397;28;20393;-55
2023/07/26 09:38:54;;;;;;;;;;;;;;;21.25;47.22;101197.41;4105502;28;19922;-57
2023/07/26 09:40:56;;;;;;;;;;;;;;;21.26;46.92;101196.47;4101339;29;19950;-54
2023/07/26 09:42:58;;;;;;;;;;;;;;;21.25;47.27;101202.78;4101065;29;19928;-54
2023/07/26 09:44:59;;;;;;;;;;;;;;;21.25;47.53;101202.78;4101233;29;20298;-54
2023/07/26 09:47:02;;;;;;;;;;;;;;;21.22;47.21;101195.81;4101295;29;19922;-48
2023/07/26 09:49:05;;;;;;;;;;;;;;;21.21;47.24;101207.50;4100516;29;19993;-52
2023/07/26 09:51:08;;;;;;;;;;;;;;;21.16;47.76;101207.81;4100974;29;20014;-51
2023/07/26 09:53:14;;;;;;;;;;;;;;;21.16;47.77;101212.31;4100908;29;20405;-52
2023/07/26 09:55:15;;;;;;;;;;;;;;;21.14;47.47;101207.09;4103454;28;19922;-53
2023/07/26 09:57:21;;;;;;;;;;;;;;;21.13;47.84;101207.19;4120931;28;19926;-49
2023/07/26 09:59:24;;;;;;;;;;;;;;;21.10;47.60;101210.94;4116249;28;19928;-54
2023/07/26 10:01:27;;;;;;;;;;;;;;;21.10;47.61;101213.63;4116927;28;19922;-54
2023/07/26 10:03:30;;;;;;;;;;;;;;;21.08;47.76;101215.53;4116916;28;19940;-54
2023/07/26 10:05:46;;;;;;;;;;;;;;;21.12;47.48;101217.03;4116772;28;19922;-54
2023/07/26 10:07:47;;;;;;;;;;;;;;;21.19;47.36;101212.09;4116494;28;19922;-54
2023/07/26 10:09:50;;;;;;;;;;;;;;;21.23;47.14;101210.91;4114981;28;20449;-52
2023/07/26 10:11:53;;;;;;;;;;;;;;;21.27;46.42;101200.84;4115255;28;20005;-51
2023/07/26 10:13:59;;;;;;;;;;;;;;;21.34;46.36;101207.47;4116743;28;19922;-56
2023/07/26 10:16:01;;;;;;;;;;;;;;;21.38;46.62;101206.25;4116913;28;19949;-56
2023/07/26 10:18:03;;;;;;;;;;;;;;;21.41;46.77;101205.16;4117026;28;20016;-54
2023/07/26 10:20:05;;;;;;;;;;;;;;;21.45;46.29;101206.66;4116071;28;19980;-57
2023/07/26 10:22:07;;;;;;;;;;;;;;;21.48;46.39;101201.06;4116316;28;19921;-52
2023/07/26 10:24:09;;;;;;;;;;;;;;;21.48;46.31;101199.28;4116799;28;19962;-57
2023/07/26 10:26:11;;;;;;;;;;;;;;;21.49;46.32;101200.94;4116813;28;20334;-56